createdAt,value
2022-12-13T00:01:48.022Z,88.44
2022-12-13T00:04:18.125Z,88.43
2022-12-13T00:06:46.520Z,88.40
2022-12-13T00:09:15.512Z,88.63
2022-12-13T00:11:44.125Z,88.16
2022-12-13T00:14:14.180Z,88.00
2022-12-13T00:16:46.476Z,88.12
2022-12-13T00:19:15.120Z,87.66
2022-12-13T00:21:45.389Z,87.71
2022-12-13T00:27:15.546Z,87.40
2022-12-13T00:29:43.581Z,87.57
2022-12-13T00:32:12.052Z,87.57
2022-12-13T00:34:40.278Z,87.72
2022-12-13T00:37:10.374Z,87.73
2022-12-13T00:39:38.909Z,87.57
2022-12-13T00:42:07.150Z,87.79
2022-12-13T00:44:35.242Z,87.48
2022-12-13T00:47:03.830Z,87.75
2022-12-13T00:49:32.457Z,87.81
2022-12-13T00:52:01.014Z,87.31
2022-12-13T00:54:31.650Z,87.18
2022-12-13T00:57:00.536Z,87.36
2022-12-13T00:59:29.386Z,87.60
2022-12-13T01:01:58.132Z,87.47
2022-12-13T01:04:26.207Z,87.50
2022-12-13T01:06:55.349Z,87.24
2022-12-13T01:09:27.562Z,86.75
2022-12-13T01:12:00.458Z,87.17
2022-12-13T01:14:29.535Z,87.20
2022-12-13T01:16:58.161Z,87.20
2022-12-13T01:19:27.770Z,86.99
2022-12-13T01:21:56.089Z,86.90
2022-12-13T01:24:24.882Z,86.44
2022-12-13T01:26:53.462Z,86.27
2022-12-13T01:29:29.859Z,86.57
2022-12-13T01:32:00.332Z,86.72
2022-12-13T01:34:36.413Z,87.13
2022-12-13T01:37:04.610Z,86.91
2022-12-13T01:39:38.392Z,86.38
2022-12-13T01:42:07.519Z,86.67
2022-12-13T01:45:08.219Z,86.48
2022-12-13T01:47:42.138Z,87.09
2022-12-13T01:50:15.114Z,86.29
2022-12-13T01:52:45.437Z,85.92
2022-12-13T01:55:15.434Z,86.64
2022-12-13T01:57:46.843Z,87.35
2022-12-13T02:00:21.186Z,87.36
2022-12-13T02:02:50.595Z,87.13
2022-12-13T02:05:26.707Z,86.91
2022-12-13T02:07:57.207Z,87.09
2022-12-13T02:10:26.356Z,86.72
2022-12-13T02:12:54.637Z,87.29
2022-12-13T02:15:24.720Z,87.62
2022-12-13T02:18:16.082Z,88.22
2022-12-13T02:20:59.473Z,88.41
2022-12-13T02:23:47.948Z,87.49
2022-12-13T02:26:43.097Z,86.90
2022-12-13T02:29:42.574Z,87.00
2022-12-13T02:32:19.278Z,86.50
2022-12-13T02:34:53.018Z,85.97
2022-12-13T02:37:25.586Z,86.44
2022-12-13T02:40:01.786Z,85.61
2022-12-13T02:42:36.963Z,86.02
2022-12-13T02:45:14.468Z,84.99
2022-12-13T02:47:49.870Z,84.46
2022-12-13T02:50:20.455Z,84.61
2022-12-13T02:52:50.120Z,85.08
2022-12-13T02:55:18.508Z,85.30
2022-12-13T02:57:48.725Z,85.79
2022-12-13T03:00:20.450Z,86.42
2022-12-13T03:03:04.961Z,86.54
2022-12-13T03:05:59.213Z,87.30
2022-12-13T03:08:37.025Z,86.98
2022-12-13T03:11:09.772Z,86.84
2022-12-13T03:13:44.938Z,86.56
2022-12-13T03:16:26.171Z,86.40
2022-12-13T03:18:59.137Z,86.70
2022-12-13T03:21:27.464Z,86.94
2022-12-13T03:23:56.082Z,86.82
2022-12-13T03:26:27.760Z,87.38
2022-12-13T03:28:56.045Z,86.80
2022-12-13T03:31:24.299Z,86.64
2022-12-13T03:33:52.422Z,86.35
2022-12-13T03:36:23.059Z,87.17
2022-12-13T03:38:53.553Z,87.78
2022-12-13T03:41:31.302Z,88.02
2022-12-13T03:44:00.445Z,87.97
2022-12-13T03:46:29.066Z,87.90
2022-12-13T03:48:57.489Z,88.15
2022-12-13T03:51:28.322Z,87.75
2022-12-13T03:53:57.210Z,87.74
2022-12-13T03:56:26.508Z,87.57
2022-12-13T03:58:55.053Z,87.25
2022-12-13T04:01:23.983Z,87.06
2022-12-13T04:03:52.444Z,87.34
2022-12-13T04:06:22.725Z,87.34
2022-12-13T04:08:56.335Z,87.13
2022-12-13T04:11:43.411Z,86.82
2022-12-13T04:14:22.894Z,87.34
2022-12-13T04:16:52.707Z,87.79
2022-12-13T04:19:23.252Z,87.62
2022-12-13T04:21:52.708Z,87.88
2022-12-13T04:24:31.372Z,87.72
2022-12-13T04:27:01.049Z,87.55
2022-12-13T04:29:34.322Z,88.01
2022-12-13T04:32:04.211Z,87.96
2022-12-13T04:34:37.335Z,87.76
2022-12-13T04:37:06.134Z,87.42
2022-12-13T04:39:35.618Z,87.60
2022-12-13T04:42:05.937Z,87.41
2022-12-13T04:44:37.086Z,87.42
2022-12-13T04:47:06.154Z,86.94
2022-12-13T04:49:35.134Z,87.15
2022-12-13T04:52:03.811Z,86.65
2022-12-13T04:54:36.149Z,86.10
2022-12-13T04:57:07.979Z,86.19
2022-12-13T04:59:36.093Z,86.46
2022-12-13T05:02:04.862Z,85.68
2022-12-13T05:04:33.516Z,85.66
2022-12-13T05:07:01.647Z,85.21
2022-12-13T05:09:29.652Z,85.51
2022-12-13T05:12:00.976Z,85.53
2022-12-13T05:14:31.721Z,86.18
2022-12-13T05:17:00.065Z,86.20
2022-12-13T05:19:31.616Z,86.54
2022-12-13T05:22:02.071Z,86.51
2022-12-13T05:24:31.845Z,87.17
2022-12-13T05:27:02.527Z,87.23
2022-12-13T05:29:56.314Z,86.49
2022-12-13T05:32:42.772Z,86.26
2022-12-13T05:35:13.383Z,86.18
2022-12-13T05:37:41.777Z,85.75
2022-12-13T05:40:11.119Z,86.08
2022-12-13T05:42:40.276Z,85.95
2022-12-13T05:45:19.012Z,86.00
2022-12-13T05:47:48.224Z,85.37
2022-12-13T05:50:19.359Z,85.55
2022-12-13T05:52:47.980Z,85.92
2022-12-13T05:55:16.488Z,86.09
2022-12-13T05:57:50.501Z,86.26
2022-12-13T06:00:30.455Z,86.56
2022-12-13T06:03:00.467Z,87.07
2022-12-13T06:05:30.163Z,87.21
2022-12-13T06:07:59.259Z,87.05
2022-12-13T06:10:34.852Z,86.70
2022-12-13T06:13:21.071Z,86.64
2022-12-13T06:15:52.058Z,86.98
2022-12-13T06:18:31.617Z,86.66
2022-12-13T06:21:01.513Z,86.56
2022-12-13T06:23:32.424Z,86.11
2022-12-13T06:26:00.589Z,86.21
2022-12-13T06:28:28.875Z,86.75
2022-12-13T06:31:01.239Z,86.94
2022-12-13T06:33:30.045Z,86.12
2022-12-13T06:35:59.192Z,86.00
2022-12-13T06:38:32.014Z,86.88
2022-12-13T06:41:18.440Z,87.56
2022-12-13T06:43:48.360Z,87.63
2022-12-13T06:46:18.757Z,87.64
2022-12-13T06:48:46.741Z,87.21
2022-12-13T06:51:22.427Z,87.02
2022-12-13T06:53:52.123Z,86.24
2022-12-13T06:56:20.681Z,87.17
2022-12-13T06:58:48.616Z,87.55
2022-12-13T07:01:24.548Z,87.60
2022-12-13T07:03:55.316Z,88.04
2022-12-13T07:06:25.057Z,88.26
2022-12-13T07:08:55.493Z,88.15
2022-12-13T07:11:25.160Z,87.91
2022-12-13T07:13:53.931Z,87.32
2022-12-13T07:16:24.775Z,87.83
2022-12-13T07:19:01.174Z,87.62
2022-12-13T07:21:30.626Z,87.77
2022-12-13T07:23:58.738Z,87.69
2022-12-13T07:26:27.335Z,86.67
2022-12-13T07:28:55.798Z,86.95
2022-12-13T07:31:28.747Z,87.06
2022-12-13T07:33:58.505Z,86.93
2022-12-13T07:36:26.855Z,86.07
2022-12-13T07:38:56.672Z,86.25
2022-12-13T07:41:26.674Z,85.86
2022-12-13T07:43:57.283Z,85.63
2022-12-13T07:46:33.500Z,84.72
2022-12-13T07:49:03.012Z,84.70
2022-12-13T07:51:31.355Z,84.79
2022-12-13T07:53:59.709Z,84.97
2022-12-13T07:56:27.917Z,85.17
2022-12-13T07:58:56.117Z,84.76
2022-12-13T08:01:24.548Z,84.57
2022-12-13T08:03:54.636Z,84.90
2022-12-13T08:06:23.013Z,85.32
2022-12-13T08:08:51.899Z,85.29
2022-12-13T08:11:22.015Z,84.70
2022-12-13T08:13:50.155Z,84.58
2022-12-13T08:16:28.024Z,84.68
2022-12-13T08:19:02.154Z,85.04
2022-12-13T08:24:24.865Z,84.24
2022-12-13T08:26:55.731Z,84.64
2022-12-13T08:29:34.838Z,84.95
2022-12-13T08:32:04.419Z,84.87
2022-12-13T08:34:33.982Z,84.88
2022-12-13T08:37:03.845Z,84.30
2022-12-13T08:39:33.958Z,84.61
2022-12-13T08:42:16.388Z,84.48
2022-12-13T08:44:47.953Z,84.61
2022-12-13T08:47:22.875Z,85.19
2022-12-13T08:49:56.125Z,84.91
2022-12-13T08:52:30.570Z,84.87
2022-12-13T08:54:58.813Z,85.09
2022-12-13T08:57:27.503Z,85.48
2022-12-13T08:59:56.298Z,85.20
2022-12-13T09:02:24.710Z,84.00
2022-12-13T09:04:57.039Z,83.93
2022-12-13T09:07:29.718Z,84.08
2022-12-13T09:09:58.411Z,83.74
2022-12-13T09:12:35.914Z,83.69
2022-12-13T09:15:22.568Z,83.47
2022-12-13T09:17:53.010Z,83.28
2022-12-13T09:20:29.684Z,82.35
2022-12-13T09:23:01.936Z,82.58
2022-12-13T09:25:37.378Z,83.02
2022-12-13T09:28:10.068Z,83.49
2022-12-13T09:30:39.139Z,83.43
2022-12-13T09:33:28.033Z,83.27
2022-12-13T09:35:57.917Z,83.13
2022-12-13T09:38:26.236Z,83.96
2022-12-13T09:40:58.588Z,83.91
2022-12-13T09:43:33.518Z,83.11
2022-12-13T09:46:24.391Z,82.77
2022-12-13T09:49:01.821Z,82.61
2022-12-13T09:51:41.181Z,82.21
2022-12-13T09:54:23.873Z,81.50
2022-12-13T09:56:57.765Z,81.08
2022-12-13T09:59:33.688Z,81.84
2022-12-13T10:02:13.957Z,82.27
2022-12-13T10:04:43.433Z,81.83
2022-12-13T10:07:21.031Z,83.00
2022-12-13T10:09:54.699Z,83.09
2022-12-13T10:12:23.816Z,82.90
2022-12-13T10:14:58.553Z,83.28
2022-12-13T10:17:38.065Z,82.86
2022-12-13T10:20:10.254Z,83.02
2022-12-13T10:22:39.731Z,83.14
2022-12-13T10:25:09.745Z,82.44
2022-12-13T10:27:40.497Z,81.95
2022-12-13T10:30:12.071Z,81.91
2022-12-13T10:32:55.148Z,82.21
2022-12-13T10:35:26.704Z,81.28
2022-12-13T10:37:57.867Z,81.10
2022-12-13T10:40:34.200Z,80.37
2022-12-13T10:43:13.387Z,81.31
2022-12-13T10:45:43.014Z,81.74
2022-12-13T10:48:22.368Z,81.18
2022-12-13T10:51:04.039Z,82.05
2022-12-13T10:53:36.032Z,82.53
2022-12-13T10:56:05.145Z,80.09
2022-12-13T10:58:40.489Z,75.36
2022-12-13T11:01:21.594Z,68.88
2022-12-13T11:04:03.541Z,65.83
2022-12-13T11:06:43.938Z,66.80
2022-12-13T11:09:22.960Z,70.69
2022-12-13T11:11:58.267Z,73.05
2022-12-13T11:14:41.949Z,74.23
2022-12-13T11:17:34.322Z,75.66
2022-12-13T11:20:10.452Z,77.31
2022-12-13T11:22:39.942Z,76.84
2022-12-13T11:25:18.566Z,77.00
2022-12-13T11:27:59.578Z,76.82
2022-12-13T11:30:37.501Z,76.84
2022-12-13T11:33:28.865Z,78.04
2022-12-13T11:36:09.709Z,78.89
2022-12-13T11:38:57.813Z,79.10
2022-12-13T11:41:31.116Z,79.71
2022-12-13T11:44:05.303Z,79.89
2022-12-13T11:46:39.898Z,79.89
2022-12-13T11:49:16.524Z,79.65
2022-12-13T11:51:48.123Z,79.15
2022-12-13T11:54:26.393Z,78.83
2022-12-13T11:57:00.205Z,79.45
2022-12-13T11:59:40.728Z,79.15
2022-12-13T12:02:25.383Z,78.72
2022-12-13T12:05:00.417Z,79.42
2022-12-13T12:08:12.727Z,79.56
2022-12-13T12:17:42.279Z,78.88
2022-12-13T12:20:23.452Z,78.66
2022-12-13T12:23:02.457Z,79.00
2022-12-13T12:25:42.466Z,78.48
2022-12-13T12:28:19.190Z,78.40
2022-12-13T12:30:58.891Z,77.71
2022-12-13T12:33:38.138Z,77.40
2022-12-13T12:36:30.901Z,77.58
2022-12-13T12:39:26.554Z,77.79
2022-12-13T12:42:12.497Z,77.41
2022-12-13T12:44:50.908Z,76.84
2022-12-13T12:48:07.207Z,77.56
2022-12-13T12:53:55.835Z,78.06
2022-12-13T12:56:41.648Z,79.27
2022-12-13T12:59:19.829Z,79.69
2022-12-13T13:01:58.354Z,79.86
2022-12-13T13:04:36.012Z,80.45
2022-12-13T13:07:23.079Z,79.95
2022-12-13T13:09:54.716Z,79.70
2022-12-13T13:12:30.200Z,79.86
2022-12-13T13:15:00.748Z,80.49
2022-12-13T13:17:47.675Z,80.59
2022-12-13T13:20:24.397Z,80.13
2022-12-13T13:23:17.442Z,79.67
2022-12-13T13:26:16.060Z,79.22
2022-12-13T13:28:35.360Z,79.10
2022-12-13T13:31:06.374Z,79.37
2022-12-13T13:33:46.340Z,78.40
2022-12-13T13:36:46.532Z,78.39
2022-12-13T13:39:19.924Z,78.64
2022-12-13T13:41:57.322Z,78.54
2022-12-13T13:44:55.308Z,78.58
2022-12-13T13:47:39.108Z,78.57
2022-12-13T13:50:44.714Z,78.02
2022-12-13T13:54:00.547Z,77.81
2022-12-13T13:56:45.102Z,77.73
2022-12-13T13:59:54.905Z,77.31
2022-12-13T14:03:02.086Z,77.88
2022-12-13T14:06:00.413Z,77.88
2022-12-13T14:08:42.435Z,77.97
2022-12-13T14:11:35.667Z,76.92
2022-12-13T14:14:38.879Z,77.69
2022-12-13T14:17:45.740Z,77.51
2022-12-13T14:20:46.442Z,77.94
2022-12-13T14:23:26.888Z,78.06
2022-12-13T14:26:08.740Z,78.76
2022-12-13T14:28:48.614Z,78.72
2022-12-13T14:31:23.475Z,78.17
2022-12-13T14:33:56.689Z,77.89
2022-12-13T14:36:37.497Z,78.60
2022-12-13T14:39:24.819Z,78.89
2022-12-13T14:41:57.752Z,79.38
2022-12-13T14:44:28.101Z,79.60
2022-12-13T14:47:01.378Z,80.18
2022-12-13T14:49:33.033Z,80.12
2022-12-13T14:52:07.074Z,79.76
2022-12-13T14:54:42.526Z,80.90
2022-12-13T14:57:17.587Z,80.72
2022-12-13T14:59:58.477Z,81.08
2022-12-13T15:12:15.388Z,82.76
2022-12-13T15:18:53.485Z,81.90
2022-12-13T15:21:28.559Z,82.21
2022-12-13T15:24:07.381Z,81.85
2022-12-13T15:26:43.230Z,81.79
2022-12-13T15:29:15.816Z,81.32
2022-12-13T15:31:48.680Z,81.34
2022-12-13T15:34:42.299Z,82.04
2022-12-13T15:37:28.104Z,82.01
2022-12-13T15:43:00.220Z,81.90
2022-12-13T15:45:36.391Z,82.56
2022-12-13T15:48:05.914Z,82.09
2022-12-13T15:50:37.102Z,82.36
2022-12-13T15:53:19.062Z,82.89
2022-12-13T15:55:47.853Z,82.64
2022-12-13T15:58:26.945Z,82.31
2022-12-13T16:00:57.270Z,82.04
2022-12-13T16:03:29.790Z,81.80
2022-12-13T16:05:59.079Z,82.09
2022-12-13T16:08:31.973Z,82.21
2022-12-13T16:11:01.797Z,82.20
2022-12-13T16:13:33.640Z,82.32
2022-12-13T16:16:09.379Z,81.97
2022-12-13T16:18:46.570Z,82.10
2022-12-13T16:21:31.573Z,82.54
2022-12-13T16:24:10.003Z,82.19
2022-12-13T16:30:00.161Z,82.36
2022-12-13T16:32:44.467Z,82.92
2022-12-13T16:35:23.210Z,82.51
2022-12-13T16:37:53.730Z,82.60
2022-12-13T16:40:32.451Z,82.31
2022-12-13T16:43:04.761Z,82.62
2022-12-13T16:45:43.624Z,82.65
2022-12-13T16:48:18.006Z,82.53
2022-12-13T16:50:48.341Z,83.14
2022-12-13T16:53:26.281Z,82.49
2022-12-13T16:55:58.495Z,82.75
2022-12-13T16:58:28.118Z,81.93
2022-12-13T17:00:58.833Z,81.74
2022-12-13T17:03:28.464Z,81.31
2022-12-13T17:05:58.977Z,81.97
2022-12-13T17:08:27.975Z,82.90
2022-12-13T17:10:58.385Z,83.05
2022-12-13T17:13:27.468Z,82.79
2022-12-13T17:15:59.384Z,82.51
2022-12-13T17:18:29.110Z,82.64
2022-12-13T17:20:58.504Z,82.69
2022-12-13T17:23:27.829Z,83.03
2022-12-13T17:25:58.631Z,83.40
2022-12-13T17:28:27.254Z,83.79
2022-12-13T17:30:58.078Z,83.91
2022-12-13T17:33:29.941Z,83.40
2022-12-13T17:35:59.197Z,83.00
2022-12-13T17:38:28.473Z,82.48
2022-12-13T17:41:02.609Z,83.08
2022-12-13T17:43:37.444Z,83.35
2022-12-13T17:46:13.319Z,83.49
2022-12-13T17:48:45.774Z,83.21
2022-12-13T17:51:16.254Z,83.93
2022-12-13T17:53:48.528Z,83.29
2022-12-13T17:56:19.855Z,83.33
2022-12-13T17:58:49.045Z,83.11
2022-12-13T18:01:21.340Z,82.86
2022-12-13T18:03:50.482Z,83.08
2022-12-13T18:06:21.605Z,82.85
2022-12-13T18:08:54.566Z,82.95
2022-12-13T18:11:34.067Z,82.88
2022-12-13T18:14:04.387Z,82.39
2022-12-13T18:16:37.560Z,82.44
2022-12-13T18:19:08.694Z,82.45
2022-12-13T18:21:38.417Z,82.70
2022-12-13T18:24:08.024Z,81.97
2022-12-13T18:26:39.230Z,82.33
2022-12-13T18:29:07.851Z,82.92
2022-12-13T18:31:39.651Z,82.20
2022-12-13T18:34:09.356Z,81.29
2022-12-13T18:36:47.341Z,82.23
2022-12-13T18:39:17.414Z,82.43
2022-12-13T18:41:50.965Z,81.65
2022-12-13T18:44:20.329Z,81.78
2022-12-13T18:47:09.046Z,82.66
2022-12-13T18:49:40.766Z,82.59
2022-12-13T18:52:12.016Z,82.43
2022-12-13T18:54:54.410Z,82.62
2022-12-13T18:57:28.524Z,82.93
2022-12-13T19:00:02.509Z,83.52
2022-12-13T19:02:34.624Z,83.56
2022-12-13T19:05:04.499Z,83.19
2022-12-13T19:07:37.290Z,83.14
2022-12-13T19:10:07.234Z,82.92
2022-12-13T19:12:43.288Z,83.59
2022-12-13T19:16:01.220Z,84.13
2022-12-13T19:18:40.677Z,83.69
2022-12-13T19:21:22.055Z,84.03
2022-12-13T19:27:10.493Z,84.41
2022-12-13T19:33:39.557Z,84.64
2022-12-13T19:42:28.260Z,84.64
2022-12-13T19:52:01.772Z,84.60
2022-12-13T19:54:37.502Z,85.03
2022-12-13T19:57:20.497Z,84.13
2022-12-13T20:00:12.160Z,84.58
2022-12-13T20:02:46.077Z,84.26
2022-12-13T20:12:41.165Z,84.94
2022-12-13T20:15:41.603Z,84.80
2022-12-13T20:39:20.228Z,85.03
2022-12-13T20:41:48.816Z,84.87
2022-12-13T20:50:23.380Z,85.18
2022-12-13T20:56:13.152Z,85.56
2022-12-13T20:58:50.540Z,85.67
2022-12-13T21:01:22.238Z,86.04
2022-12-13T21:03:53.246Z,85.70
2022-12-13T21:06:31.307Z,85.65
2022-12-13T21:11:52.055Z,85.67
2022-12-13T21:14:39.221Z,86.26
2022-12-13T21:17:11.715Z,86.08
2022-12-13T21:19:44.567Z,86.41
2022-12-13T21:22:22.458Z,86.56
2022-12-13T21:27:35.161Z,86.69
2022-12-13T21:33:14.676Z,86.75
2022-12-13T21:35:44.819Z,87.01
2022-12-13T21:38:13.144Z,86.44
2022-12-13T21:40:45.977Z,86.49
2022-12-13T21:43:17.776Z,86.69
2022-12-13T21:45:46.338Z,86.08
2022-12-13T21:48:15.947Z,86.60
2022-12-13T21:50:55.428Z,86.02
2022-12-13T21:53:34.033Z,85.62
2022-12-13T21:56:20.262Z,85.75
2022-12-13T21:59:07.831Z,85.65
2022-12-13T22:01:50.086Z,85.42
2022-12-13T22:04:19.233Z,84.92
2022-12-13T22:06:49.821Z,84.39
2022-12-13T22:09:17.976Z,84.41
2022-12-13T22:11:45.946Z,84.10
2022-12-13T22:14:15.455Z,83.96
2022-12-13T22:16:43.378Z,83.79
2022-12-13T22:19:13.764Z,83.77
2022-12-13T22:21:42.110Z,83.29
2022-12-13T22:24:10.933Z,83.20
2022-12-13T22:26:40.554Z,83.30
2022-12-13T22:29:08.986Z,83.75
2022-12-13T22:31:38.268Z,83.74
2022-12-13T22:34:06.168Z,83.39
2022-12-13T22:36:33.980Z,83.39
2022-12-13T22:39:02.039Z,83.33
2022-12-13T22:41:29.968Z,83.11
2022-12-13T22:43:58.025Z,83.02
2022-12-13T22:46:26.546Z,83.22
2022-12-13T22:48:55.855Z,83.40
2022-12-13T22:51:23.659Z,83.23
2022-12-13T22:53:52.317Z,83.29
2022-12-13T22:56:22.050Z,83.78
2022-12-13T22:58:55.001Z,82.91
2022-12-13T23:01:26.777Z,82.84
2022-12-13T23:03:56.817Z,82.63
2022-12-13T23:06:26.713Z,82.54
2022-12-13T23:08:56.435Z,82.52
2022-12-13T23:11:42.688Z,82.54
2022-12-13T23:14:12.309Z,81.85
2022-12-13T23:16:40.699Z,82.18
2022-12-13T23:19:40.565Z,81.97
2022-12-13T23:22:00.427Z,82.12
2022-12-13T23:24:28.447Z,82.01
2022-12-13T23:26:56.264Z,81.85
2022-12-13T23:29:24.583Z,81.75
2022-12-13T23:31:52.390Z,82.02
2022-12-13T23:34:21.918Z,82.05
2022-12-13T23:36:49.768Z,81.88
2022-12-13T23:39:17.803Z,81.39
2022-12-13T23:42:07.868Z,81.77
2022-12-13T23:44:35.873Z,81.57
2022-12-13T23:47:05.976Z,81.75
2022-12-13T23:49:37.734Z,81.47
2022-12-13T23:52:05.803Z,81.56
2022-12-13T23:54:33.669Z,81.59
2022-12-13T23:57:01.519Z,81.62
2022-12-13T23:59:29.417Z,81.25
